createdAt,value
2022-11-04T00:03:56.525Z,12.04
2022-11-04T00:08:58.350Z,11.96
2022-11-04T00:13:59.670Z,11.98
2022-11-04T00:19:00.977Z,12.02
2022-11-04T00:24:21.791Z,12.04
2022-11-04T00:29:22.889Z,12.00
2022-11-04T00:34:23.798Z,11.94
2022-11-04T00:39:24.788Z,11.86
2022-11-04T00:44:26.238Z,11.83
2022-11-04T00:49:27.259Z,11.93
2022-11-04T00:54:28.251Z,12.08
2022-11-04T00:59:29.271Z,12.23
2022-11-04T01:04:30.284Z,12.51
2022-11-04T01:09:31.652Z,12.71
2022-11-04T01:14:33.022Z,12.81
2022-11-04T01:19:33.972Z,12.86
2022-11-04T01:24:35.120Z,12.96
2022-11-04T01:29:36.860Z,13.05
2022-11-04T01:34:42.382Z,13.20
2022-11-04T01:39:44.749Z,12.73
2022-11-04T01:44:47.919Z,11.21
2022-11-04T01:49:54.246Z,10.21
2022-11-04T01:54:58.810Z,10.16
2022-11-04T02:00:03.838Z,11.44
2022-11-04T02:05:05.308Z,12.25
2022-11-04T02:10:07.489Z,12.65
2022-11-04T02:15:08.748Z,12.79
2022-11-04T02:20:24.197Z,12.95
2022-11-04T02:26:02.588Z,13.12
2022-11-04T02:31:31.436Z,13.31
2022-11-04T02:36:45.784Z,12.23
2022-11-04T02:41:58.649Z,11.07
2022-11-04T02:47:02.312Z,12.00
2022-11-04T02:52:07.704Z,12.73
2022-11-04T02:57:15.049Z,13.14
2022-11-04T03:02:26.437Z,13.36
2022-11-04T03:07:33.484Z,12.80
2022-11-04T03:12:57.799Z,11.61
2022-11-04T03:18:15.247Z,12.38
2022-11-04T03:23:17.172Z,12.83
2022-11-04T03:28:42.552Z,12.98
2022-11-04T03:33:49.788Z,13.18
2022-11-04T03:38:52.043Z,13.27
2022-11-04T03:43:53.072Z,13.37
2022-11-04T03:48:54.831Z,12.96
2022-11-04T03:53:57.198Z,11.47
2022-11-04T03:59:06.919Z,11.32
2022-11-04T04:04:16.582Z,12.13
2022-11-04T04:09:50.820Z,12.50
2022-11-04T04:15:02.411Z,12.72
2022-11-04T04:20:15.122Z,12.92
2022-11-04T04:25:35.584Z,13.05
2022-11-04T04:30:37.726Z,12.92
2022-11-04T04:35:43.938Z,12.86
2022-11-04T04:41:13.551Z,12.90
2022-11-04T04:46:14.917Z,12.92
2022-11-04T04:51:15.977Z,12.87
2022-11-04T04:56:17.189Z,12.78
2022-11-04T05:01:18.304Z,12.73
2022-11-04T05:06:19.663Z,12.68
2022-11-04T05:11:24.369Z,12.49
2022-11-04T05:16:28.438Z,12.47
2022-11-04T05:21:29.441Z,12.47
2022-11-04T05:26:30.431Z,12.44
2022-11-04T05:31:31.593Z,12.35
2022-11-04T05:36:32.500Z,12.34
2022-11-04T05:41:34.270Z,12.25
2022-11-04T05:46:35.870Z,12.18
2022-11-04T05:51:37.089Z,12.11
2022-11-04T05:56:38.369Z,12.15
2022-11-04T06:01:43.109Z,12.20
2022-11-04T06:06:44.497Z,12.35
2022-11-04T06:11:45.880Z,12.35
2022-11-04T06:16:47.073Z,12.26
2022-11-04T06:21:48.086Z,12.25
2022-11-04T06:26:49.123Z,12.21
2022-11-04T06:31:50.380Z,12.22
2022-11-04T06:36:52.475Z,12.32
2022-11-04T06:41:55.504Z,12.33
2022-11-04T06:46:59.046Z,12.35
2022-11-04T06:52:01.675Z,12.21
2022-11-04T06:57:03.442Z,12.14
2022-11-04T07:02:05.183Z,12.06
2022-11-04T07:07:06.461Z,12.04
2022-11-04T07:12:07.486Z,12.25
2022-11-04T07:17:08.542Z,12.14
2022-11-04T07:22:10.539Z,12.01
2022-11-04T07:27:11.616Z,12.12
2022-11-04T07:32:12.775Z,12.38
2022-11-04T07:37:13.824Z,12.52
2022-11-04T07:42:14.904Z,12.51
2022-11-04T07:47:15.923Z,12.50
2022-11-04T07:52:17.049Z,12.54
2022-11-04T07:57:19.158Z,12.57
2022-11-04T08:02:25.949Z,12.41
2022-11-04T08:07:29.948Z,12.24
2022-11-04T08:12:31.880Z,12.30
2022-11-04T08:17:32.896Z,12.41
2022-11-04T08:22:34.017Z,12.61
2022-11-04T08:27:35.018Z,12.66
2022-11-04T08:32:36.277Z,12.83
2022-11-04T08:37:37.901Z,12.84
2022-11-04T08:42:39.250Z,12.73
2022-11-04T08:47:40.171Z,11.49
2022-11-04T08:52:41.212Z,11.99
2022-11-04T08:57:42.172Z,12.67
2022-11-04T09:02:43.484Z,13.14
2022-11-04T09:07:44.521Z,12.98
2022-11-04T09:12:46.033Z,11.63
2022-11-04T09:17:47.051Z,11.33
2022-11-04T09:22:50.132Z,12.40
2022-11-04T09:27:51.171Z,13.03
2022-11-04T09:32:52.999Z,13.39
2022-11-04T09:37:55.066Z,13.56
2022-11-04T09:43:33.551Z,13.72
2022-11-04T09:48:41.220Z,13.09
2022-11-04T09:53:49.965Z,12.83
2022-11-04T09:58:51.562Z,13.60
2022-11-04T10:04:09.073Z,13.93
2022-11-04T10:09:22.910Z,14.02
2022-11-04T10:14:45.472Z,14.09
2022-11-04T10:20:05.449Z,14.07
2022-11-04T10:25:22.611Z,13.94
2022-11-04T10:30:25.488Z,12.82
2022-11-04T10:35:38.963Z,13.35
2022-11-04T10:40:41.550Z,14.10
2022-11-04T10:46:00.448Z,13.74
2022-11-04T10:51:02.310Z,13.23
2022-11-04T10:56:06.671Z,14.01
2022-11-04T11:01:31.551Z,14.42
2022-11-04T11:06:35.185Z,14.28
2022-11-04T11:11:44.681Z,13.24
2022-11-04T11:16:47.341Z,13.85
2022-11-04T11:21:49.873Z,14.36
2022-11-04T11:27:00.376Z,14.08
2022-11-04T11:32:01.574Z,13.21
2022-11-04T11:37:04.361Z,13.81
2022-11-04T11:42:10.585Z,14.18
2022-11-04T11:47:35.614Z,14.01
2022-11-04T11:52:37.579Z,13.30
2022-11-04T12:03:13.489Z,14.34
2022-11-04T12:14:10.295Z,13.98
2022-11-04T12:19:40.929Z,14.08
2022-11-04T12:25:08.948Z,13.11
2022-11-04T12:30:22.546Z,13.82
2022-11-04T12:35:32.328Z,13.63
2022-11-04T12:40:41.451Z,13.08
2022-11-04T12:46:04.424Z,14.06
2022-11-04T12:51:50.766Z,14.22
2022-11-04T12:57:12.092Z,13.20
2022-11-04T13:02:27.904Z,13.86
2022-11-04T13:07:53.293Z,14.36
2022-11-04T13:12:56.279Z,13.44
2022-11-04T13:18:05.985Z,14.10
2022-11-04T13:23:15.901Z,14.40
2022-11-04T13:28:19.489Z,13.35
2022-11-04T13:33:45.746Z,13.06
2022-11-04T13:38:56.922Z,14.10
2022-11-04T13:44:03.825Z,13.36
2022-11-04T13:49:31.641Z,12.66
2022-11-04T13:54:35.030Z,13.57
2022-11-04T13:59:36.402Z,13.51
2022-11-04T14:04:42.100Z,12.67
2022-11-04T14:09:46.146Z,13.54
2022-11-04T14:14:51.520Z,13.44
2022-11-04T14:19:55.509Z,12.53
2022-11-04T14:25:18.116Z,13.25
2022-11-04T14:30:38.143Z,13.42
2022-11-04T14:35:39.196Z,12.41
2022-11-04T14:40:51.625Z,13.11
2022-11-04T14:45:54.599Z,13.08
2022-11-04T14:50:56.563Z,12.41
2022-11-04T14:56:23.752Z,13.45
2022-11-04T15:01:34.182Z,13.39
2022-11-04T15:06:53.430Z,12.31
2022-11-04T15:12:26.754Z,12.87
2022-11-04T15:17:32.799Z,13.16
2022-11-04T15:22:35.058Z,12.10
2022-11-04T15:27:36.622Z,12.72
2022-11-04T15:32:37.734Z,13.14
2022-11-04T15:37:40.880Z,12.17
2022-11-04T15:42:43.847Z,12.64
2022-11-04T15:47:44.894Z,13.36
2022-11-04T15:52:49.378Z,12.67
2022-11-04T15:57:51.054Z,11.95
2022-11-04T16:02:54.998Z,12.91
2022-11-04T16:08:21.273Z,13.32
2022-11-04T16:13:25.360Z,12.00
2022-11-04T16:18:51.507Z,12.25
2022-11-04T16:24:30.926Z,13.18
2022-11-04T16:29:36.169Z,13.22
2022-11-04T16:34:38.135Z,11.95
2022-11-04T16:39:40.114Z,12.37
2022-11-04T16:44:50.721Z,13.03
2022-11-04T16:49:51.766Z,13.35
2022-11-04T16:54:55.489Z,12.85
2022-11-04T16:59:57.319Z,11.87
2022-11-04T17:04:58.709Z,12.55
2022-11-04T17:09:59.923Z,12.98
2022-11-04T17:15:00.990Z,13.25
2022-11-04T17:20:02.117Z,12.60
2022-11-04T17:25:03.812Z,11.87
2022-11-04T17:30:07.046Z,12.53
2022-11-04T17:35:09.843Z,13.02
2022-11-04T17:40:17.429Z,13.29
2022-11-04T17:45:19.918Z,13.52
2022-11-04T17:50:22.379Z,12.54
2022-11-04T17:55:27.468Z,12.13
2022-11-04T18:00:29.042Z,12.82
2022-11-04T18:05:30.044Z,13.06
2022-11-04T18:10:31.366Z,13.27
2022-11-04T18:15:32.403Z,12.38
2022-11-04T18:20:34.747Z,11.71
2022-11-04T18:25:38.333Z,12.63
2022-11-04T18:30:40.428Z,13.20
2022-11-04T18:35:41.405Z,13.41
2022-11-04T18:40:43.031Z,12.61
2022-11-04T18:45:44.067Z,11.93
2022-11-04T18:50:45.634Z,12.77
2022-11-04T18:55:46.668Z,13.13
2022-11-04T19:00:48.212Z,12.98
2022-11-04T19:05:49.306Z,11.61
2022-11-04T19:11:01.091Z,11.61
2022-11-04T19:16:05.900Z,12.54
2022-11-04T19:21:09.583Z,13.04
2022-11-04T19:26:16.751Z,13.11
2022-11-04T19:31:23.550Z,13.25
2022-11-04T19:36:27.828Z,12.83
2022-11-04T19:41:48.496Z,11.70
2022-11-04T19:46:50.052Z,12.38
2022-11-04T19:51:51.290Z,12.73
2022-11-04T19:56:52.406Z,12.84
2022-11-04T20:01:53.521Z,12.94
2022-11-04T20:06:54.593Z,13.04
2022-11-04T20:12:14.490Z,13.09
2022-11-04T20:17:15.502Z,12.53
2022-11-04T20:22:16.617Z,11.78
2022-11-04T20:27:18.388Z,12.42
2022-11-04T20:32:20.243Z,12.64
2022-11-04T20:37:21.601Z,12.58
2022-11-04T20:42:22.855Z,12.59
2022-11-04T20:47:23.884Z,12.64
2022-11-04T20:52:25.622Z,12.48
2022-11-04T20:57:27.716Z,12.37
2022-11-04T21:02:29.134Z,12.31
2022-11-04T21:07:30.575Z,12.31
2022-11-04T21:12:31.646Z,12.42
2022-11-04T21:17:37.431Z,12.56
2022-11-04T21:22:41.023Z,12.67
2022-11-04T21:27:42.468Z,12.75
2022-11-04T21:32:43.543Z,12.78
2022-11-04T21:37:44.531Z,12.78
2022-11-04T21:42:45.679Z,12.72
2022-11-04T21:47:46.727Z,12.87
2022-11-04T21:52:47.659Z,12.90
2022-11-04T21:57:48.688Z,12.82
2022-11-04T22:02:50.148Z,12.78
2022-11-04T22:08:09.899Z,12.67
2022-11-04T22:13:11.328Z,12.58
2022-11-04T22:18:15.034Z,12.50
2022-11-04T22:23:16.095Z,12.43
2022-11-04T22:28:18.535Z,12.35
2022-11-04T22:33:19.889Z,12.35
2022-11-04T22:38:20.914Z,12.39
2022-11-04T22:43:24.421Z,12.40
2022-11-04T22:48:25.484Z,12.25
2022-11-04T22:53:28.893Z,12.32
2022-11-04T22:58:30.035Z,12.37
2022-11-04T23:03:31.712Z,12.51
2022-11-04T23:08:35.130Z,12.50
2022-11-04T23:13:54.665Z,12.45
2022-11-04T23:18:56.866Z,12.46
2022-11-04T23:24:17.234Z,12.46
2022-11-04T23:29:37.483Z,12.43
2022-11-04T23:34:57.070Z,12.40
2022-11-04T23:39:58.119Z,12.43
2022-11-04T23:45:17.880Z,12.32
2022-11-04T23:50:37.866Z,12.17
2022-11-04T23:55:56.883Z,12.19
